sensor_id;sensor_type;location;lat;lon;timestamp;temperature;humidity
15879;DHT22;61999;51.514;14.614;2023-04-21T00:01:01;4.50;60.40
15879;DHT22;61999;51.514;14.614;2023-04-21T00:03:34;4.50;60.60
15879;DHT22;61999;51.514;14.614;2023-04-21T00:06:05;4.50;60.80
15879;DHT22;61999;51.514;14.614;2023-04-21T00:08:35;4.50;61.00
15879;DHT22;61999;51.514;14.614;2023-04-21T00:11:05;4.50;61.20
15879;DHT22;61999;51.514;14.614;2023-04-21T00:13:34;4.60;61.50
15879;DHT22;61999;51.514;14.614;2023-04-21T00:16:02;4.60;61.70
15879;DHT22;61999;51.514;14.614;2023-04-21T00:18:31;4.60;62.00
15879;DHT22;61999;51.514;14.614;2023-04-21T00:20:59;4.60;61.90
15879;DHT22;61999;51.514;14.614;2023-04-21T00:23:28;4.60;61.60
15879;DHT22;61999;51.514;14.614;2023-04-21T00:25:56;4.70;62.10
15879;DHT22;61999;51.514;14.614;2023-04-21T00:28:25;4.70;62.00
15879;DHT22;61999;51.514;14.614;2023-04-21T00:30:52;4.70;62.00
15879;DHT22;61999;51.514;14.614;2023-04-21T00:33:20;4.70;62.30
15879;DHT22;61999;51.514;14.614;2023-04-21T00:35:48;4.70;62.10
15879;DHT22;61999;51.514;14.614;2023-04-21T00:38:16;4.70;63.80
15879;DHT22;61999;51.514;14.614;2023-04-21T00:40:46;4.50;64.60
15879;DHT22;61999;51.514;14.614;2023-04-21T00:43:14;4.50;64.20
15879;DHT22;61999;51.514;14.614;2023-04-21T00:45:44;4.50;64.30
15879;DHT22;61999;51.514;14.614;2023-04-21T00:48:12;4.40;65.10
15879;DHT22;61999;51.514;14.614;2023-04-21T00:50:40;4.40;65.00
15879;DHT22;61999;51.514;14.614;2023-04-21T00:53:10;4.40;65.20
15879;DHT22;61999;51.514;14.614;2023-04-21T00:55:39;4.50;63.80
15879;DHT22;61999;51.514;14.614;2023-04-21T00:58:08;4.60;63.40
15879;DHT22;61999;51.514;14.614;2023-04-21T01:00:37;4.70;62.70
15879;DHT22;61999;51.514;14.614;2023-04-21T01:03:05;4.90;63.10
15879;DHT22;61999;51.514;14.614;2023-04-21T01:05:34;4.90;62.30
15879;DHT22;61999;51.514;14.614;2023-04-21T01:08:02;5.00;62.50
15879;DHT22;61999;51.514;14.614;2023-04-21T01:10:32;5.00;61.90
15879;DHT22;61999;51.514;14.614;2023-04-21T01:13:00;4.90;61.60
15879;DHT22;61999;51.514;14.614;2023-04-21T01:15:30;4.70;61.40
15879;DHT22;61999;51.514;14.614;2023-04-21T01:17:58;4.60;61.30
15879;DHT22;61999;51.514;14.614;2023-04-21T01:20:26;4.50;61.60
15879;DHT22;61999;51.514;14.614;2023-04-21T01:22:56;4.50;61.90
15879;DHT22;61999;51.514;14.614;2023-04-21T01:25:24;4.40;61.50
15879;DHT22;61999;51.514;14.614;2023-04-21T01:27:54;4.30;61.30
15879;DHT22;61999;51.514;14.614;2023-04-21T01:30:22;4.20;61.30
15879;DHT22;61999;51.514;14.614;2023-04-21T01:32:50;4.20;61.30
15879;DHT22;61999;51.514;14.614;2023-04-21T01:35:18;4.10;61.20
15879;DHT22;61999;51.514;14.614;2023-04-21T01:37:46;4.00;61.10
15879;DHT22;61999;51.514;14.614;2023-04-21T01:40:15;4.00;61.20
15879;DHT22;61999;51.514;14.614;2023-04-21T01:42:44;3.90;61.00
15879;DHT22;61999;51.514;14.614;2023-04-21T01:45:12;3.90;61.00
15879;DHT22;61999;51.514;14.614;2023-04-21T01:47:40;3.80;60.90
15879;DHT22;61999;51.514;14.614;2023-04-21T01:50:09;3.70;60.80
15879;DHT22;61999;51.514;14.614;2023-04-21T01:52:37;3.70;60.90
15879;DHT22;61999;51.514;14.614;2023-04-21T01:55:05;3.60;61.10
15879;DHT22;61999;51.514;14.614;2023-04-21T01:57:35;3.60;61.00
15879;DHT22;61999;51.514;14.614;2023-04-21T02:00:03;3.50;61.00
15879;DHT22;61999;51.514;14.614;2023-04-21T02:02:32;3.40;60.90
15879;DHT22;61999;51.514;14.614;2023-04-21T02:05:00;3.30;60.90
15879;DHT22;61999;51.514;14.614;2023-04-21T02:07:28;3.30;61.10
15879;DHT22;61999;51.514;14.614;2023-04-21T02:09:56;3.30;61.30
15879;DHT22;61999;51.514;14.614;2023-04-21T02:12:24;3.30;61.30
15879;DHT22;61999;51.514;14.614;2023-04-21T02:14:53;3.30;61.60
15879;DHT22;61999;51.514;14.614;2023-04-21T02:17:21;3.30;62.00
15879;DHT22;61999;51.514;14.614;2023-04-21T02:19:49;3.30;62.20
15879;DHT22;61999;51.514;14.614;2023-04-21T02:22:17;3.30;62.30
15879;DHT22;61999;51.514;14.614;2023-04-21T02:24:48;3.30;62.50
15879;DHT22;61999;51.514;14.614;2023-04-21T02:27:16;3.30;62.70
15879;DHT22;61999;51.514;14.614;2023-04-21T02:29:44;3.40;63.10
15879;DHT22;61999;51.514;14.614;2023-04-21T02:32:13;3.40;62.90
15879;DHT22;61999;51.514;14.614;2023-04-21T02:34:47;3.40;62.90
15879;DHT22;61999;51.514;14.614;2023-04-21T02:37:15;3.40;62.80
15879;DHT22;61999;51.514;14.614;2023-04-21T02:39:43;3.40;62.90
15879;DHT22;61999;51.514;14.614;2023-04-21T02:42:11;3.40;62.80
15879;DHT22;61999;51.514;14.614;2023-04-21T02:44:39;3.50;62.80
15879;DHT22;61999;51.514;14.614;2023-04-21T02:47:08;3.40;62.80
15879;DHT22;61999;51.514;14.614;2023-04-21T02:49:40;3.40;62.90
15879;DHT22;61999;51.514;14.614;2023-04-21T02:52:08;3.40;62.80
15879;DHT22;61999;51.514;14.614;2023-04-21T02:54:36;3.40;62.90
15879;DHT22;61999;51.514;14.614;2023-04-21T02:57:04;3.40;62.80
15879;DHT22;61999;51.514;14.614;2023-04-21T02:59:32;3.40;62.90
15879;DHT22;61999;51.514;14.614;2023-04-21T03:02:00;3.40;62.90
15879;DHT22;61999;51.514;14.614;2023-04-21T03:04:29;3.30;62.80
15879;DHT22;61999;51.514;14.614;2023-04-21T03:06:59;3.40;62.80
15879;DHT22;61999;51.514;14.614;2023-04-21T03:09:27;3.30;62.80
15879;DHT22;61999;51.514;14.614;2023-04-21T03:11:55;3.30;62.80
15879;DHT22;61999;51.514;14.614;2023-04-21T03:14:23;3.30;62.80
15879;DHT22;61999;51.514;14.614;2023-04-21T03:16:51;3.30;62.80
15879;DHT22;61999;51.514;14.614;2023-04-21T03:19:19;3.20;62.80
15879;DHT22;61999;51.514;14.614;2023-04-21T03:21:47;3.20;62.70
15879;DHT22;61999;51.514;14.614;2023-04-21T03:24:16;3.20;62.70
15879;DHT22;61999;51.514;14.614;2023-04-21T03:26:44;3.10;62.60
15879;DHT22;61999;51.514;14.614;2023-04-21T03:29:12;3.10;62.60
15879;DHT22;61999;51.514;14.614;2023-04-21T03:31:40;3.10;62.60
15879;DHT22;61999;51.514;14.614;2023-04-21T03:34:08;3.00;62.50
15879;DHT22;61999;51.514;14.614;2023-04-21T03:36:36;3.00;62.50
15879;DHT22;61999;51.514;14.614;2023-04-21T03:39:04;3.00;62.60
15879;DHT22;61999;51.514;14.614;2023-04-21T03:41:40;2.90;62.50
15879;DHT22;61999;51.514;14.614;2023-04-21T03:44:07;2.90;62.50
15879;DHT22;61999;51.514;14.614;2023-04-21T03:46:36;2.90;62.70
15879;DHT22;61999;51.514;14.614;2023-04-21T03:49:03;2.90;62.70
15879;DHT22;61999;51.514;14.614;2023-04-21T03:51:31;2.90;63.10
15879;DHT22;61999;51.514;14.614;2023-04-21T03:53:59;2.90;62.90
15879;DHT22;61999;51.514;14.614;2023-04-21T03:56:27;2.80;62.80
15879;DHT22;61999;51.514;14.614;2023-04-21T03:58:56;2.80;62.90
15879;DHT22;61999;51.514;14.614;2023-04-21T04:01:24;2.80;63.00
15879;DHT22;61999;51.514;14.614;2023-04-21T04:03:52;2.80;63.00
15879;DHT22;61999;51.514;14.614;2023-04-21T04:06:20;2.80;63.20
15879;DHT22;61999;51.514;14.614;2023-04-21T04:08:48;2.80;63.20
15879;DHT22;61999;51.514;14.614;2023-04-21T04:11:16;2.80;63.30
15879;DHT22;61999;51.514;14.614;2023-04-21T04:13:44;2.80;63.30
15879;DHT22;61999;51.514;14.614;2023-04-21T04:16:13;2.80;63.40
15879;DHT22;61999;51.514;14.614;2023-04-21T04:18:41;2.80;63.60
15879;DHT22;61999;51.514;14.614;2023-04-21T04:21:11;2.90;63.80
15879;DHT22;61999;51.514;14.614;2023-04-21T04:23:39;2.90;64.20
15879;DHT22;61999;51.514;14.614;2023-04-21T04:26:07;2.90;63.90
15879;DHT22;61999;51.514;14.614;2023-04-21T04:28:35;2.90;64.10
15879;DHT22;61999;51.514;14.614;2023-04-21T04:31:03;2.90;64.00
15879;DHT22;61999;51.514;14.614;2023-04-21T04:33:32;3.00;64.30
15879;DHT22;61999;51.514;14.614;2023-04-21T04:36:00;3.00;64.40
15879;DHT22;61999;51.514;14.614;2023-04-21T04:38:28;3.00;64.50
15879;DHT22;61999;51.514;14.614;2023-04-21T04:40:56;3.10;64.60
15879;DHT22;61999;51.514;14.614;2023-04-21T04:43:26;3.10;64.60
15879;DHT22;61999;51.514;14.614;2023-04-21T04:45:55;3.20;64.70
15879;DHT22;61999;51.514;14.614;2023-04-21T04:48:23;3.20;64.50
15879;DHT22;61999;51.514;14.614;2023-04-21T04:50:52;3.20;64.90
15879;DHT22;61999;51.514;14.614;2023-04-21T04:53:20;3.30;64.80
15879;DHT22;61999;51.514;14.614;2023-04-21T04:55:48;3.30;64.70
15879;DHT22;61999;51.514;14.614;2023-04-21T04:58:16;3.30;64.80
15879;DHT22;61999;51.514;14.614;2023-04-21T05:00:44;3.40;64.80
15879;DHT22;61999;51.514;14.614;2023-04-21T05:03:12;3.40;65.00
15879;DHT22;61999;51.514;14.614;2023-04-21T05:05:40;3.40;65.20
15879;DHT22;61999;51.514;14.614;2023-04-21T05:08:09;3.50;65.10
15879;DHT22;61999;51.514;14.614;2023-04-21T05:10:37;3.50;65.00
15879;DHT22;61999;51.514;14.614;2023-04-21T05:13:05;3.60;65.00
15879;DHT22;61999;51.514;14.614;2023-04-21T05:15:33;3.60;64.90
15879;DHT22;61999;51.514;14.614;2023-04-21T05:18:01;3.60;65.00
15879;DHT22;61999;51.514;14.614;2023-04-21T05:20:29;3.60;65.00
15879;DHT22;61999;51.514;14.614;2023-04-21T05:22:57;3.60;65.00
15879;DHT22;61999;51.514;14.614;2023-04-21T05:25:26;3.70;64.90
15879;DHT22;61999;51.514;14.614;2023-04-21T05:27:54;3.80;64.90
15879;DHT22;61999;51.514;14.614;2023-04-21T05:30:22;3.70;64.70
15879;DHT22;61999;51.514;14.614;2023-04-21T05:32:50;3.80;64.80
15879;DHT22;61999;51.514;14.614;2023-04-21T05:35:18;3.80;64.60
15879;DHT22;61999;51.514;14.614;2023-04-21T05:37:46;3.90;64.70
15879;DHT22;61999;51.514;14.614;2023-04-21T05:40:14;3.90;64.50
15879;DHT22;61999;51.514;14.614;2023-04-21T05:42:44;4.00;64.40
15879;DHT22;61999;51.514;14.614;2023-04-21T05:45:12;4.10;64.30
15879;DHT22;61999;51.514;14.614;2023-04-21T05:47:40;4.20;64.20
15879;DHT22;61999;51.514;14.614;2023-04-21T05:50:08;4.20;63.80
15879;DHT22;61999;51.514;14.614;2023-04-21T05:52:36;4.20;63.90
15879;DHT22;61999;51.514;14.614;2023-04-21T05:55:05;4.20;63.80
15879;DHT22;61999;51.514;14.614;2023-04-21T05:57:33;4.30;63.70
15879;DHT22;61999;51.514;14.614;2023-04-21T06:00:04;4.30;63.70
15879;DHT22;61999;51.514;14.614;2023-04-21T06:02:33;4.20;63.60
15879;DHT22;61999;51.514;14.614;2023-04-21T06:05:01;4.20;63.80
15879;DHT22;61999;51.514;14.614;2023-04-21T06:07:29;4.30;64.00
15879;DHT22;61999;51.514;14.614;2023-04-21T06:09:57;4.30;63.80
15879;DHT22;61999;51.514;14.614;2023-04-21T06:12:25;4.30;64.20
15879;DHT22;61999;51.514;14.614;2023-04-21T06:14:53;4.40;63.90
15879;DHT22;61999;51.514;14.614;2023-04-21T06:17:24;4.40;64.20
15879;DHT22;61999;51.514;14.614;2023-04-21T06:19:52;4.40;64.00
15879;DHT22;61999;51.514;14.614;2023-04-21T06:22:22;4.30;64.30
15879;DHT22;61999;51.514;14.614;2023-04-21T06:24:50;4.20;64.80
15879;DHT22;61999;51.514;14.614;2023-04-21T06:27:18;4.20;64.70
15879;DHT22;61999;51.514;14.614;2023-04-21T06:29:46;4.30;64.70
15879;DHT22;61999;51.514;14.614;2023-04-21T06:32:14;4.40;64.60
15879;DHT22;61999;51.514;14.614;2023-04-21T06:34:43;4.60;64.60
15879;DHT22;61999;51.514;14.614;2023-04-21T06:37:11;4.70;64.60
15879;DHT22;61999;51.514;14.614;2023-04-21T06:39:39;4.90;64.20
15879;DHT22;61999;51.514;14.614;2023-04-21T06:42:07;5.00;64.40
15879;DHT22;61999;51.514;14.614;2023-04-21T06:44:35;5.10;64.00
15879;DHT22;61999;51.514;14.614;2023-04-21T06:47:03;5.10;64.20
15879;DHT22;61999;51.514;14.614;2023-04-21T06:49:31;5.30;63.70
15879;DHT22;61999;51.514;14.614;2023-04-21T06:52:01;5.40;64.00
15879;DHT22;61999;51.514;14.614;2023-04-21T06:54:29;5.50;64.00
15879;DHT22;61999;51.514;14.614;2023-04-21T06:56:57;5.60;63.50
15879;DHT22;61999;51.514;14.614;2023-04-21T06:59:25;5.80;63.70
15879;DHT22;61999;51.514;14.614;2023-04-21T07:01:53;6.00;63.20
15879;DHT22;61999;51.514;14.614;2023-04-21T07:04:21;6.10;63.00
15879;DHT22;61999;51.514;14.614;2023-04-21T07:06:49;6.20;62.60
15879;DHT22;61999;51.514;14.614;2023-04-21T07:09:18;6.30;61.30
15879;DHT22;61999;51.514;14.614;2023-04-21T07:11:47;6.40;61.20
15879;DHT22;61999;51.514;14.614;2023-04-21T07:14:14;6.60;62.00
15879;DHT22;61999;51.514;14.614;2023-04-21T07:16:42;6.70;61.80
15879;DHT22;61999;51.514;14.614;2023-04-21T07:19:10;6.90;61.50
15879;DHT22;61999;51.514;14.614;2023-04-21T07:21:38;7.10;60.80
15879;DHT22;61999;51.514;14.614;2023-04-21T07:24:07;7.30;61.10
15879;DHT22;61999;51.514;14.614;2023-04-21T07:26:36;7.40;61.00
15879;DHT22;61999;51.514;14.614;2023-04-21T07:29:05;7.60;60.80
15879;DHT22;61999;51.514;14.614;2023-04-21T07:31:33;7.70;57.50
15879;DHT22;61999;51.514;14.614;2023-04-21T07:34:00;7.80;56.50
15879;DHT22;61999;51.514;14.614;2023-04-21T07:36:28;7.90;56.60
15879;DHT22;61999;51.514;14.614;2023-04-21T07:38:57;8.10;57.90
15879;DHT22;61999;51.514;14.614;2023-04-21T07:41:25;8.30;56.80
15879;DHT22;61999;51.514;14.614;2023-04-21T07:43:54;8.40;55.50
15879;DHT22;61999;51.514;14.614;2023-04-21T07:46:22;8.50;54.00
15879;DHT22;61999;51.514;14.614;2023-04-21T07:48:55;8.70;56.10
15879;DHT22;61999;51.514;14.614;2023-04-21T07:51:24;8.90;53.00
15879;DHT22;61999;51.514;14.614;2023-04-21T07:53:53;9.10;55.30
15879;DHT22;61999;51.514;14.614;2023-04-21T07:56:21;9.40;54.30
15879;DHT22;61999;51.514;14.614;2023-04-21T07:58:49;9.60;53.10
15879;DHT22;61999;51.514;14.614;2023-04-21T08:01:18;9.60;51.40
15879;DHT22;61999;51.514;14.614;2023-04-21T08:03:47;9.60;49.70
15879;DHT22;61999;51.514;14.614;2023-04-21T08:06:15;9.50;48.40
15879;DHT22;61999;51.514;14.614;2023-04-21T08:08:43;9.80;50.00
15879;DHT22;61999;51.514;14.614;2023-04-21T08:11:11;10.10;49.70
15879;DHT22;61999;51.514;14.614;2023-04-21T08:13:39;10.20;49.80
15879;DHT22;61999;51.514;14.614;2023-04-21T08:16:07;10.10;47.60
15879;DHT22;61999;51.514;14.614;2023-04-21T08:18:36;10.20;46.30
15879;DHT22;61999;51.514;14.614;2023-04-21T08:21:04;10.50;48.40
15879;DHT22;61999;51.514;14.614;2023-04-21T08:23:32;10.60;45.70
15879;DHT22;61999;51.514;14.614;2023-04-21T08:26:01;10.60;45.50
15879;DHT22;61999;51.514;14.614;2023-04-21T08:28:29;10.80;44.30
15879;DHT22;61999;51.514;14.614;2023-04-21T08:30:57;11.10;46.10
15879;DHT22;61999;51.514;14.614;2023-04-21T08:33:26;11.50;45.50
15879;DHT22;61999;51.514;14.614;2023-04-21T08:35:55;11.70;47.00
15879;DHT22;61999;51.514;14.614;2023-04-21T08:38:28;12.00;47.50
15879;DHT22;61999;51.514;14.614;2023-04-21T08:40:58;12.30;45.90
15879;DHT22;61999;51.514;14.614;2023-04-21T08:43:27;12.40;42.40
15879;DHT22;61999;51.514;14.614;2023-04-21T08:45:56;12.30;40.40
15879;DHT22;61999;51.514;14.614;2023-04-21T08:48:25;12.30;41.10
15879;DHT22;61999;51.514;14.614;2023-04-21T08:50:56;12.40;40.30
15879;DHT22;61999;51.514;14.614;2023-04-21T08:53:24;12.50;41.70
15879;DHT22;61999;51.514;14.614;2023-04-21T08:55:54;12.60;41.30
15879;DHT22;61999;51.514;14.614;2023-04-21T08:58:29;12.80;40.80
15879;DHT22;61999;51.514;14.614;2023-04-21T09:00:57;13.00;43.50
15879;DHT22;61999;51.514;14.614;2023-04-21T09:03:26;13.60;42.90
15879;DHT22;61999;51.514;14.614;2023-04-21T09:06:00;13.70;36.70
15879;DHT22;61999;51.514;14.614;2023-04-21T09:08:31;13.50;36.70
15879;DHT22;61999;51.514;14.614;2023-04-21T09:11:00;13.50;37.20
15879;DHT22;61999;51.514;14.614;2023-04-21T09:13:29;13.50;36.80
15879;DHT22;61999;51.514;14.614;2023-04-21T09:15:59;13.80;37.60
15879;DHT22;61999;51.514;14.614;2023-04-21T09:18:30;13.70;38.80
15879;DHT22;61999;51.514;14.614;2023-04-21T09:21:07;13.90;38.70
15879;DHT22;61999;51.514;14.614;2023-04-21T09:23:41;14.40;39.00
15879;DHT22;61999;51.514;14.614;2023-04-21T09:26:10;14.90;38.50
15879;DHT22;61999;51.514;14.614;2023-04-21T09:28:42;15.10;34.90
15879;DHT22;61999;51.514;14.614;2023-04-21T09:31:12;15.20;35.10
15879;DHT22;61999;51.514;14.614;2023-04-21T09:33:45;15.30;34.90
15879;DHT22;61999;51.514;14.614;2023-04-21T09:36:25;15.70;35.00
15879;DHT22;61999;51.514;14.614;2023-04-21T09:38:55;15.70;34.50
15879;DHT22;61999;51.514;14.614;2023-04-21T09:41:43;16.10;37.50
15879;DHT22;61999;51.514;14.614;2023-04-21T09:44:11;16.20;32.40
15879;DHT22;61999;51.514;14.614;2023-04-21T09:46:41;16.50;34.50
15879;DHT22;61999;51.514;14.614;2023-04-21T09:49:10;16.90;35.70
15879;DHT22;61999;51.514;14.614;2023-04-21T09:51:42;17.10;33.80
15879;DHT22;61999;51.514;14.614;2023-04-21T09:54:31;17.40;32.40
15879;DHT22;61999;51.514;14.614;2023-04-21T09:57:02;17.40;33.60
15879;DHT22;61999;51.514;14.614;2023-04-21T09:59:34;17.40;30.70
15879;DHT22;61999;51.514;14.614;2023-04-21T10:02:04;17.50;31.70
15879;DHT22;61999;51.514;14.614;2023-04-21T10:04:34;17.30;29.70
15879;DHT22;61999;51.514;14.614;2023-04-21T10:07:05;17.30;30.30
15879;DHT22;61999;51.514;14.614;2023-04-21T10:09:38;17.70;29.90
15879;DHT22;61999;51.514;14.614;2023-04-21T10:12:09;18.20;30.10
15879;DHT22;61999;51.514;14.614;2023-04-21T10:14:40;18.10;29.40
15879;DHT22;61999;51.514;14.614;2023-04-21T10:17:09;18.10;28.90
15879;DHT22;61999;51.514;14.614;2023-04-21T10:19:47;18.60;32.00
15879;DHT22;61999;51.514;14.614;2023-04-21T10:22:27;19.00;30.60
15879;DHT22;61999;51.514;14.614;2023-04-21T10:24:57;19.30;31.00
15879;DHT22;61999;51.514;14.614;2023-04-21T10:27:31;19.70;32.20
15879;DHT22;61999;51.514;14.614;2023-04-21T10:30:01;19.80;29.10
15879;DHT22;61999;51.514;14.614;2023-04-21T10:32:45;19.10;27.50
15879;DHT22;61999;51.514;14.614;2023-04-21T10:35:14;19.00;28.50
15879;DHT22;61999;51.514;14.614;2023-04-21T10:37:47;19.00;28.50
15879;DHT22;61999;51.514;14.614;2023-04-21T10:40:33;18.80;28.00
15879;DHT22;61999;51.514;14.614;2023-04-21T10:43:42;18.80;28.70
15879;DHT22;61999;51.514;14.614;2023-04-21T10:46:32;19.30;28.20
15879;DHT22;61999;51.514;14.614;2023-04-21T10:49:05;19.10;27.40
15879;DHT22;61999;51.514;14.614;2023-04-21T10:52:01;19.50;29.10
15879;DHT22;61999;51.514;14.614;2023-04-21T10:54:41;20.20;27.70
15879;DHT22;61999;51.514;14.614;2023-04-21T10:57:12;20.40;28.30
15879;DHT22;61999;51.514;14.614;2023-04-21T10:59:41;20.30;25.60
15879;DHT22;61999;51.514;14.614;2023-04-21T11:02:11;19.90;25.40
15879;DHT22;61999;51.514;14.614;2023-04-21T11:04:41;20.00;27.00
15879;DHT22;61999;51.514;14.614;2023-04-21T11:07:15;20.40;26.10
15879;DHT22;61999;51.514;14.614;2023-04-21T11:09:47;20.20;26.10
15879;DHT22;61999;51.514;14.614;2023-04-21T11:12:26;20.30;26.10
15879;DHT22;61999;51.514;14.614;2023-04-21T11:14:56;21.00;28.30
15879;DHT22;61999;51.514;14.614;2023-04-21T11:17:25;21.60;25.40
15879;DHT22;61999;51.514;14.614;2023-04-21T11:19:54;21.70;24.20
15879;DHT22;61999;51.514;14.614;2023-04-21T11:22:24;21.70;24.60
15879;DHT22;61999;51.514;14.614;2023-04-21T11:24:55;21.40;22.10
15879;DHT22;61999;51.514;14.614;2023-04-21T11:27:26;21.30;24.40
15879;DHT22;61999;51.514;14.614;2023-04-21T11:29:56;21.00;23.10
15879;DHT22;61999;51.514;14.614;2023-04-21T11:32:24;20.90;23.20
15879;DHT22;61999;51.514;14.614;2023-04-21T11:34:53;20.50;23.30
15879;DHT22;61999;51.514;14.614;2023-04-21T11:37:23;20.40;24.40
15879;DHT22;61999;51.514;14.614;2023-04-21T11:39:58;21.10;23.80
15879;DHT22;61999;51.514;14.614;2023-04-21T11:42:27;21.30;23.40
15879;DHT22;61999;51.514;14.614;2023-04-21T11:44:56;21.10;23.00
15879;DHT22;61999;51.514;14.614;2023-04-21T11:47:25;21.00;22.60
15879;DHT22;61999;51.514;14.614;2023-04-21T11:49:55;21.20;23.40
15879;DHT22;61999;51.514;14.614;2023-04-21T11:52:25;21.50;23.10
15879;DHT22;61999;51.514;14.614;2023-04-21T11:54:59;21.30;23.40
15879;DHT22;61999;51.514;14.614;2023-04-21T11:57:30;21.80;25.00
15879;DHT22;61999;51.514;14.614;2023-04-21T12:00:00;22.70;23.30
15879;DHT22;61999;51.514;14.614;2023-04-21T12:02:29;23.30;25.40
15879;DHT22;61999;51.514;14.614;2023-04-21T12:05:00;23.80;22.50
15879;DHT22;61999;51.514;14.614;2023-04-21T12:07:31;23.30;22.20
15879;DHT22;61999;51.514;14.614;2023-04-21T12:10:01;23.70;22.90
15879;DHT22;61999;51.514;14.614;2023-04-21T12:12:37;23.10;22.50
15879;DHT22;61999;51.514;14.614;2023-04-21T12:15:07;23.40;23.90
15879;DHT22;61999;51.514;14.614;2023-04-21T12:17:37;23.70;22.40
15879;DHT22;61999;51.514;14.614;2023-04-21T12:20:06;24.00;22.00
15879;DHT22;61999;51.514;14.614;2023-04-21T12:22:35;23.80;21.20
15879;DHT22;61999;51.514;14.614;2023-04-21T12:25:05;23.90;22.90
15879;DHT22;61999;51.514;14.614;2023-04-21T12:27:34;24.20;23.30
15879;DHT22;61999;51.514;14.614;2023-04-21T12:30:03;25.00;23.20
15879;DHT22;61999;51.514;14.614;2023-04-21T12:32:32;25.60;22.90
15879;DHT22;61999;51.514;14.614;2023-04-21T12:35:00;25.60;21.10
15879;DHT22;61999;51.514;14.614;2023-04-21T12:37:29;25.20;20.10
15879;DHT22;61999;51.514;14.614;2023-04-21T12:39:57;25.10;21.50
15879;DHT22;61999;51.514;14.614;2023-04-21T12:42:27;25.20;22.00
15879;DHT22;61999;51.514;14.614;2023-04-21T12:44:54;25.40;22.50
15879;DHT22;61999;51.514;14.614;2023-04-21T12:47:23;25.60;21.10
15879;DHT22;61999;51.514;14.614;2023-04-21T12:49:51;25.40;20.10
15879;DHT22;61999;51.514;14.614;2023-04-21T12:52:19;24.70;20.30
15879;DHT22;61999;51.514;14.614;2023-04-21T12:54:47;23.80;20.30
15879;DHT22;61999;51.514;14.614;2023-04-21T12:57:15;23.60;20.60
15879;DHT22;61999;51.514;14.614;2023-04-21T12:59:44;23.90;21.60
15879;DHT22;61999;51.514;14.614;2023-04-21T13:02:12;23.50;20.90
15879;DHT22;61999;51.514;14.614;2023-04-21T13:04:40;24.20;22.40
15879;DHT22;61999;51.514;14.614;2023-04-21T13:07:08;24.70;20.40
15879;DHT22;61999;51.514;14.614;2023-04-21T13:09:37;24.70;20.30
15879;DHT22;61999;51.514;14.614;2023-04-21T13:12:05;24.40;20.40
15879;DHT22;61999;51.514;14.614;2023-04-21T13:14:33;24.40;20.40
15879;DHT22;61999;51.514;14.614;2023-04-21T13:17:02;24.50;20.60
15879;DHT22;61999;51.514;14.614;2023-04-21T13:19:30;24.10;21.10
15879;DHT22;61999;51.514;14.614;2023-04-21T13:21:59;23.50;20.60
15879;DHT22;61999;51.514;14.614;2023-04-21T13:24:26;23.30;21.00
15879;DHT22;61999;51.514;14.614;2023-04-21T13:26:54;23.30;21.00
15879;DHT22;61999;51.514;14.614;2023-04-21T13:29:22;23.50;21.40
15879;DHT22;61999;51.514;14.614;2023-04-21T13:31:54;24.20;22.50
15879;DHT22;61999;51.514;14.614;2023-04-21T13:34:24;25.10;22.20
15879;DHT22;61999;51.514;14.614;2023-04-21T13:36:52;25.80;21.20
15879;DHT22;61999;51.514;14.614;2023-04-21T13:39:20;26.40;22.10
15879;DHT22;61999;51.514;14.614;2023-04-21T13:41:48;26.60;21.60
15879;DHT22;61999;51.514;14.614;2023-04-21T13:44:18;26.40;21.40
15879;DHT22;61999;51.514;14.614;2023-04-21T13:46:47;26.00;20.20
15879;DHT22;61999;51.514;14.614;2023-04-21T13:49:17;26.00;20.10
15879;DHT22;61999;51.514;14.614;2023-04-21T13:51:46;26.00;20.60
15879;DHT22;61999;51.514;14.614;2023-04-21T13:54:14;26.40;21.40
15879;DHT22;61999;51.514;14.614;2023-04-21T13:56:42;26.70;20.90
15879;DHT22;61999;51.514;14.614;2023-04-21T13:59:10;27.30;20.20
15879;DHT22;61999;51.514;14.614;2023-04-21T14:01:40;27.40;20.20
15879;DHT22;61999;51.514;14.614;2023-04-21T14:04:08;27.70;20.10
15879;DHT22;61999;51.514;14.614;2023-04-21T14:06:36;27.80;20.20
15879;DHT22;61999;51.514;14.614;2023-04-21T14:09:06;28.10;20.60
15879;DHT22;61999;51.514;14.614;2023-04-21T14:11:35;28.40;19.50
15879;DHT22;61999;51.514;14.614;2023-04-21T14:14:02;28.60;20.20
15879;DHT22;61999;51.514;14.614;2023-04-21T14:16:34;28.10;18.70
15879;DHT22;61999;51.514;14.614;2023-04-21T14:19:02;27.60;19.00
15879;DHT22;61999;51.514;14.614;2023-04-21T14:21:30;26.80;19.20
15879;DHT22;61999;51.514;14.614;2023-04-21T14:23:58;26.40;19.40
15879;DHT22;61999;51.514;14.614;2023-04-21T14:26:28;26.50;20.60
15879;DHT22;61999;51.514;14.614;2023-04-21T14:28:56;27.00;20.00
15879;DHT22;61999;51.514;14.614;2023-04-21T14:31:25;27.40;20.40
15879;DHT22;61999;51.514;14.614;2023-04-21T14:33:53;27.10;19.30
15879;DHT22;61999;51.514;14.614;2023-04-21T14:36:21;26.80;19.70
15879;DHT22;61999;51.514;14.614;2023-04-21T14:38:49;26.60;19.20
15879;DHT22;61999;51.514;14.614;2023-04-21T14:41:17;26.40;19.20
15879;DHT22;61999;51.514;14.614;2023-04-21T14:43:46;26.50;19.00
15879;DHT22;61999;51.514;14.614;2023-04-21T14:46:19;26.20;19.40
15879;DHT22;61999;51.514;14.614;2023-04-21T14:48:47;26.50;20.80
15879;DHT22;61999;51.514;14.614;2023-04-21T14:51:16;25.20;19.50
15879;DHT22;61999;51.514;14.614;2023-04-21T14:53:44;24.80;20.70
15879;DHT22;61999;51.514;14.614;2023-04-21T14:56:12;25.20;20.00
15879;DHT22;61999;51.514;14.614;2023-04-21T14:58:41;25.10;20.00
15879;DHT22;61999;51.514;14.614;2023-04-21T15:01:10;24.80;20.40
15879;DHT22;61999;51.514;14.614;2023-04-21T15:03:39;24.50;21.30
15879;DHT22;61999;51.514;14.614;2023-04-21T15:06:08;25.20;21.50
15879;DHT22;61999;51.514;14.614;2023-04-21T15:08:36;25.80;21.00
15879;DHT22;61999;51.514;14.614;2023-04-21T15:11:05;25.90;21.10
15879;DHT22;61999;51.514;14.614;2023-04-21T15:13:33;25.80;20.60
15879;DHT22;61999;51.514;14.614;2023-04-21T15:16:01;25.40;20.20
15879;DHT22;61999;51.514;14.614;2023-04-21T15:18:30;25.70;21.00
15879;DHT22;61999;51.514;14.614;2023-04-21T15:20:58;26.00;21.50
15879;DHT22;61999;51.514;14.614;2023-04-21T15:23:26;25.50;20.40
15879;DHT22;61999;51.514;14.614;2023-04-21T15:25:54;25.00;20.40
15879;DHT22;61999;51.514;14.614;2023-04-21T15:28:23;25.20;21.40
15879;DHT22;61999;51.514;14.614;2023-04-21T15:30:51;25.40;22.00
15879;DHT22;61999;51.514;14.614;2023-04-21T15:33:19;25.60;21.90
15879;DHT22;61999;51.514;14.614;2023-04-21T15:35:48;25.90;21.70
15879;DHT22;61999;51.514;14.614;2023-04-21T15:38:16;24.80;20.00